Time;durP1;ratioP1;P1;durP2;ratioP2;P2;SDS_P1;SDS_P2;PMS_P1;PMS_P2;Temp;Humidity;BMP_temperature;BMP_pressure;BME280_temperature;BME280_humidity;BME280_pressure;Samples;Min_cycle;Max_cycle;Signal;HPM_P1;HPM_P2
2023/02/20 00:01:35;;;;;;;8.83;4.80;;;3.80;99.90;;;;;;4176247;28;20493;-74
2023/02/20 00:03:37;;;;;;;8.83;4.70;;;3.80;99.90;;;;;;4159303;28;20481;-73
2023/02/20 00:05:39;;;;;;;9.77;4.67;;;3.80;99.90;;;;;;4160082;28;20614;-73
2023/02/20 00:07:41;;;;;;;8.00;4.73;;;3.80;99.90;;;;;;4160068;28;20454;-72
2023/02/20 00:09:43;;;;;;;8.63;4.63;;;3.80;99.90;;;;;;4160332;28;20450;-73
2023/02/20 00:11:45;;;;;;;8.57;4.77;;;3.70;99.90;;;;;;4161158;28;20469;-72
2023/02/20 00:13:48;;;;;;;9.57;5.00;;;3.70;99.90;;;;;;4161693;28;20509;-73
2023/02/20 00:15:52;;;;;;;8.13;4.97;;;3.80;99.90;;;;;;4175229;28;20491;-73
2023/02/20 00:17:54;;;;;;;8.57;5.17;;;3.80;99.90;;;;;;4161570;28;20554;-73
2023/02/20 00:19:55;;;;;;;9.03;4.87;;;3.80;99.90;;;;;;4161571;28;20462;-73
2023/02/20 00:21:57;;;;;;;8.67;4.93;;;3.80;99.90;;;;;;4161045;28;20874;-73
2023/02/20 00:23:59;;;;;;;7.37;4.87;;;3.80;99.90;;;;;;4161584;28;20535;-73
2023/02/20 00:26:01;;;;;;;8.27;4.43;;;3.80;99.90;;;;;;4159869;28;21092;-74
2023/02/20 00:28:04;;;;;;;9.27;5.33;;;3.80;99.90;;;;;;4160015;28;20532;-73
2023/02/20 00:30:07;;;;;;;11.60;6.47;;;3.80;99.90;;;;;;4159500;28;20952;-73
2023/02/20 00:32:10;;;;;;;11.87;5.77;;;3.80;99.90;;;;;;4161167;28;20500;-73
2023/02/20 00:34:12;;;;;;;10.23;6.07;;;3.80;99.90;;;;;;4162325;28;21034;-72
2023/02/20 00:36:16;;;;;;;10.07;5.50;;;3.80;99.90;;;;;;4161310;28;20517;-72
2023/02/20 00:38:18;;;;;;;9.47;5.43;;;3.80;99.90;;;;;;4162186;28;20538;-72
2023/02/20 00:40:22;;;;;;;10.23;5.07;;;3.80;99.90;;;;;;4151137;28;20478;-73
2023/02/20 00:42:24;;;;;;;7.07;4.50;;;3.80;99.90;;;;;;4176535;28;20444;-74
2023/02/20 00:44:26;;;;;;;8.10;4.47;;;3.80;99.90;;;;;;4160578;28;20625;-72
2023/02/20 00:46:28;;;;;;;9.57;4.87;;;3.80;99.90;;;;;;4159913;28;20451;-73
2023/02/20 00:48:31;;;;;;;6.83;4.43;;;3.80;99.90;;;;;;4176435;28;20488;-73
2023/02/20 00:50:33;;;;;;;7.50;4.20;;;3.80;99.90;;;;;;4160380;28;21120;-72
2023/02/20 00:52:38;;;;;;;6.23;4.10;;;3.90;99.90;;;;;;4159001;28;20462;-73
2023/02/20 00:54:40;;;;;;;8.20;4.63;;;3.90;99.90;;;;;;4160051;28;20553;-72
2023/02/20 00:56:42;;;;;;;6.57;4.17;;;3.90;99.90;;;;;;4161264;28;20569;-73
2023/02/20 00:58:44;;;;;;;8.90;4.63;;;3.90;99.90;;;;;;4161324;28;21054;-73
2023/02/20 01:00:46;;;;;;;7.70;4.57;;;3.90;99.90;;;;;;4160173;28;20833;-73
2023/02/20 01:02:47;;;;;;;9.10;4.70;;;3.90;99.90;;;;;;4159393;28;20558;-73
2023/02/20 01:04:51;;;;;;;7.47;4.87;;;4.00;99.90;;;;;;4162156;28;20505;-73
2023/02/20 01:06:53;;;;;;;9.17;5.07;;;4.00;99.90;;;;;;4158182;28;20489;-73
2023/02/20 01:08:55;;;;;;;7.70;4.90;;;4.00;99.90;;;;;;4160352;28;20552;-74
2023/02/20 01:10:58;;;;;;;10.40;5.20;;;4.00;99.90;;;;;;4159726;28;21131;-74
2023/02/20 01:13:00;;;;;;;7.47;4.53;;;4.10;99.90;;;;;;4159642;28;20478;-74
2023/02/20 01:15:02;;;;;;;9.10;4.93;;;4.00;99.90;;;;;;4160891;28;20960;-74
2023/02/20 01:17:04;;;;;;;8.00;4.90;;;4.10;99.90;;;;;;4150991;28;20573;-74
2023/02/20 01:19:06;;;;;;;12.27;5.43;;;4.00;99.90;;;;;;4159352;28;21003;-74
2023/02/20 01:21:09;;;;;;;7.93;4.43;;;4.10;99.90;;;;;;4160903;28;20884;-74
2023/02/20 01:23:11;;;;;;;9.10;5.43;;;4.10;99.90;;;;;;4159680;28;20493;-74
2023/02/20 01:25:13;;;;;;;8.77;4.97;;;4.10;99.90;;;;;;4158331;28;20458;-74
2023/02/20 01:27:15;;;;;;;8.00;5.17;;;4.10;99.90;;;;;;4160152;28;20473;-74
2023/02/20 01:29:19;;;;;;;11.53;5.93;;;4.20;99.90;;;;;;4160875;28;20466;-74
2023/02/20 01:31:21;;;;;;;9.60;5.67;;;4.20;99.90;;;;;;4160321;28;20455;-74
2023/02/20 01:33:23;;;;;;;9.33;5.53;;;4.20;99.90;;;;;;4160217;28;21133;-74
2023/02/20 01:35:29;;;;;;;9.37;5.40;;;4.20;99.90;;;;;;4160061;28;20561;-75
2023/02/20 01:37:33;;;;;;;8.47;4.97;;;4.30;99.90;;;;;;4158700;28;20886;-74
2023/02/20 01:39:34;;;;;;;9.07;5.20;;;4.30;99.90;;;;;;4161096;28;20493;-74
2023/02/20 01:41:36;;;;;;;9.97;5.20;;;4.30;99.90;;;;;;4159879;28;20549;-74
2023/02/20 01:43:38;;;;;;;10.63;5.50;;;4.30;99.90;;;;;;4159988;28;21132;-74
2023/02/20 01:45:41;;;;;;;11.53;6.07;;;4.40;99.90;;;;;;4160564;28;20573;-74
2023/02/20 01:47:43;;;;;;;9.97;5.13;;;4.40;99.90;;;;;;4161065;28;20463;-74
2023/02/20 01:49:48;;;;;;;9.57;4.93;;;4.40;99.90;;;;;;4160762;28;20471;-74
2023/02/20 01:51:56;;;;;;;10.70;5.70;;;4.40;99.90;;;;;;4160159;28;20467;-74
2023/02/20 01:54:00;;;;;;;10.13;5.00;;;4.50;99.90;;;;;;4159784;28;20501;-74
2023/02/20 01:56:07;;;;;;;8.47;4.83;;;4.50;99.90;;;;;;4160594;28;20458;-75
2023/02/20 01:58:17;;;;;;;10.27;5.03;;;4.50;99.90;;;;;;4161197;28;21033;-74
2023/02/20 02:00:23;;;;;;;8.13;4.43;;;4.50;99.90;;;;;;4159871;28;20998;-74
2023/02/20 02:02:27;;;;;;;9.83;4.57;;;4.60;99.90;;;;;;4159573;28;21145;-74
2023/02/20 02:04:30;;;;;;;9.83;4.90;;;4.60;99.90;;;;;;4161580;28;20482;-74
2023/02/20 02:06:34;;;;;;;7.33;4.70;;;4.60;99.90;;;;;;4163269;28;20554;-74
2023/02/20 02:08:38;;;;;;;8.57;4.87;;;4.70;99.90;;;;;;4163116;28;20553;-74
2023/02/20 02:10:52;;;;;;;8.50;5.07;;;4.70;99.90;;;;;;4163317;28;20513;-74
2023/02/20 02:12:54;;;;;;;9.50;5.33;;;4.70;99.90;;;;;;4161484;28;20493;-74
2023/02/20 02:14:56;;;;;;;10.00;5.53;;;4.70;99.90;;;;;;4162052;28;20513;-74
2023/02/20 02:17:36;;;;;;;7.90;4.93;;;4.80;99.90;;;;;;4161991;28;20490;-74
2023/02/20 02:20:23;;;;;;;8.87;5.03;;;4.80;99.90;;;;;;4155099;28;20553;-74
2023/02/20 02:23:00;;;;;;;7.67;4.17;;;4.80;99.90;;;;;;4162079;28;20465;-74
2023/02/20 02:25:31;;;;;;;7.73;4.43;;;4.80;99.90;;;;;;4160777;28;20483;-74
2023/02/20 02:28:08;;;;;;;7.97;4.27;;;4.80;99.90;;;;;;4162699;28;20516;-74
2023/02/20 02:30:29;;;;;;;8.90;4.37;;;4.90;99.90;;;;;;4161652;28;20486;-74
2023/02/20 02:33:02;;;;;;;6.20;3.97;;;4.90;99.90;;;;;;4162191;28;20475;-74
2023/02/20 02:35:42;;;;;;;6.33;3.73;;;4.90;99.90;;;;;;4163471;28;20459;-74
2023/02/20 02:37:50;;;;;;;7.33;3.63;;;4.90;99.90;;;;;;4163237;28;20480;-74
2023/02/20 02:40:02;;;;;;;7.87;3.70;;;4.90;99.90;;;;;;4162825;28;20494;-74
2023/02/20 02:42:12;;;;;;;7.90;4.20;;;4.90;99.90;;;;;;4162613;28;21188;-74
2023/02/20 02:44:18;;;;;;;6.17;3.57;;;5.00;99.90;;;;;;4162660;28;20915;-73
2023/02/20 02:46:27;;;;;;;7.03;3.97;;;5.00;99.90;;;;;;4161011;28;20453;-74
2023/02/20 02:48:34;;;;;;;6.30;3.77;;;5.10;99.90;;;;;;4162223;28;20960;-74
2023/02/20 02:50:39;;;;;;;6.80;3.80;;;5.10;99.90;;;;;;4162518;28;20450;-74
2023/02/20 02:52:47;;;;;;;5.70;3.70;;;5.10;99.90;;;;;;4161727;28;20485;-74
2023/02/20 02:54:51;;;;;;;6.33;3.40;;;5.20;99.90;;;;;;4161363;28;20532;-74
2023/02/20 02:56:57;;;;;;;5.33;3.50;;;5.20;99.90;;;;;;4163015;28;20474;-74
2023/02/20 02:58:59;;;;;;;7.10;3.97;;;5.30;99.90;;;;;;4162586;28;20499;-74
2023/02/20 03:01:02;;;;;;;8.17;3.47;;;5.30;99.90;;;;;;4162251;28;20898;-74
2023/02/20 03:03:12;;;;;;;7.40;3.83;;;5.30;99.90;;;;;;4161635;28;21062;-73
2023/02/20 03:05:20;;;;;;;7.87;3.90;;;5.30;99.90;;;;;;4162385;28;20551;-73
2023/02/20 03:07:23;;;;;;;9.30;4.43;;;5.40;99.90;;;;;;4162778;28;20459;-73
2023/02/20 03:09:27;;;;;;;6.73;3.87;;;5.40;99.90;;;;;;4162675;28;21013;-72
2023/02/20 03:11:33;;;;;;;8.87;4.40;;;5.40;99.90;;;;;;4160981;28;20495;-72
2023/02/20 03:15:59;;;;;;;7.93;4.07;;;5.40;99.90;;;;;;4160708;28;21219;-73
2023/02/20 03:18:12;;;;;;;9.00;4.63;;;5.40;99.90;;;;;;4160930;28;20529;-72
2023/02/20 03:20:16;;;;;;;8.03;4.43;;;5.40;99.90;;;;;;4161660;28;20509;-73
2023/02/20 03:22:21;;;;;;;7.67;4.33;;;5.40;99.90;;;;;;4161950;28;20480;-72
2023/02/20 03:24:25;;;;;;;7.73;4.20;;;5.40;99.90;;;;;;4161263;28;20514;-73
2023/02/20 03:26:33;;;;;;;8.10;4.70;;;5.40;99.90;;;;;;4161808;28;20991;-73
2023/02/20 03:28:39;;;;;;;9.07;5.10;;;5.50;99.90;;;;;;4161490;28;20447;-73
2023/02/20 03:30:46;;;;;;;10.03;5.37;;;5.50;99.90;;;;;;4161667;28;20504;-72
2023/02/20 03:44:46;;;;;;;12.20;6.37;;;5.60;99.90;;;;;;4161449;28;20518;-73
2023/02/20 03:46:52;;;;;;;10.60;6.17;;;5.60;99.90;;;;;;4162218;28;20861;-72
2023/02/20 03:48:57;;;;;;;12.77;6.40;;;5.70;99.90;;;;;;4161668;28;21015;-73
2023/02/20 03:53:19;;;;;;;11.63;6.43;;;5.70;99.90;;;;;;4161016;28;20567;-73
2023/02/20 03:55:23;;;;;;;11.37;6.47;;;5.70;99.90;;;;;;4160516;28;20468;-73
2023/02/20 03:57:30;;;;;;;12.53;6.80;;;5.80;99.90;;;;;;4161940;28;20969;-73
2023/02/20 03:59:38;;;;;;;14.13;7.00;;;5.80;99.90;;;;;;4161202;28;20444;-73
2023/02/20 04:01:42;;;;;;;13.30;6.90;;;5.80;99.90;;;;;;4161121;28;20464;-72
2023/02/20 04:03:48;;;;;;;18.67;7.50;;;5.80;99.90;;;;;;4161311;28;20538;-73
2023/02/20 04:05:54;;;;;;;14.77;7.63;;;5.80;99.90;;;;;;4161114;28;21016;-73
2023/02/20 04:08:01;;;;;;;14.73;7.03;;;5.80;99.90;;;;;;4158344;28;20484;-73
2023/02/20 04:10:09;;;;;;;14.77;7.43;;;5.90;99.90;;;;;;4160680;28;20445;-73
2023/02/20 04:12:17;;;;;;;16.63;8.20;;;5.90;99.90;;;;;;4161947;28;20479;-73
2023/02/20 04:14:23;;;;;;;16.63;7.77;;;5.90;99.90;;;;;;4176799;28;20478;-72
2023/02/20 04:16:25;;;;;;;18.00;8.17;;;5.90;99.90;;;;;;4161317;28;20991;-73
2023/02/20 04:18:29;;;;;;;12.47;7.10;;;6.00;99.90;;;;;;4159704;28;20481;-73
2023/02/20 04:20:31;;;;;;;14.67;7.60;;;6.10;99.90;;;;;;4160681;28;21105;-73
2023/02/20 04:22:39;;;;;;;18.50;7.90;;;6.00;99.90;;;;;;4161445;28;21140;-72
2023/02/20 04:24:44;;;;;;;15.07;7.50;;;6.10;99.90;;;;;;4161594;28;20492;-72
2023/02/20 04:26:47;;;;;;;14.53;7.80;;;6.10;99.90;;;;;;4160385;28;20480;-72
2023/02/20 04:28:49;;;;;;;15.33;7.87;;;6.10;99.90;;;;;;4161971;28;20512;-72
2023/02/20 04:30:53;;;;;;;13.57;6.83;;;6.10;99.90;;;;;;4151878;28;20549;-73
2023/02/20 04:32:55;;;;;;;14.37;7.23;;;6.10;99.90;;;;;;4160736;28;20483;-73
2023/02/20 04:34:57;;;;;;;14.87;7.97;;;6.20;99.90;;;;;;4160656;28;20457;-72
2023/02/20 04:37:07;;;;;;;12.97;6.53;;;6.20;99.90;;;;;;4161286;28;20460;-73
2023/02/20 04:39:09;;;;;;;13.83;7.57;;;6.20;99.90;;;;;;4160660;28;20527;-73
2023/02/20 04:41:10;;;;;;;12.93;6.53;;;6.20;99.90;;;;;;4161841;28;21006;-72
2023/02/20 04:43:12;;;;;;;12.93;6.67;;;6.20;99.90;;;;;;4161013;28;20512;-72
2023/02/20 04:45:16;;;;;;;13.37;6.93;;;6.20;99.90;;;;;;4160729;28;20837;-72
2023/02/20 04:47:19;;;;;;;13.47;6.60;;;6.20;99.90;;;;;;4159597;28;20452;-73
2023/02/20 04:49:21;;;;;;;11.37;6.33;;;6.20;99.90;;;;;;4162201;28;20460;-70
2023/02/20 04:51:23;;;;;;;15.60;7.07;;;6.20;99.90;;;;;;4160915;28;20461;-74
2023/02/20 04:53:25;;;;;;;15.83;7.67;;;6.20;99.90;;;;;;4160355;28;20496;-73
2023/02/20 04:55:28;;;;;;;15.63;7.40;;;6.20;99.90;;;;;;4162951;28;20469;-73
2023/02/20 04:57:30;;;;;;;11.87;6.33;;;6.20;99.90;;;;;;4160223;28;20449;-75
2023/02/20 04:59:31;;;;;;;14.77;7.67;;;6.20;99.90;;;;;;4161348;28;20512;-75
2023/02/20 05:01:33;;;;;;;15.43;7.80;;;6.20;99.90;;;;;;4159130;28;20527;-75
2023/02/20 05:03:37;;;;;;;12.17;6.10;;;6.20;99.90;;;;;;4159034;28;20468;-75
2023/02/20 05:05:39;;;;;;;11.83;5.67;;;6.20;99.90;;;;;;4160273;28;20532;-76
2023/02/20 05:07:41;;;;;;;11.30;5.60;;;6.20;99.90;;;;;;4158876;28;20903;-75
2023/02/20 05:09:43;;;;;;;11.20;5.27;;;6.20;99.90;;;;;;4160864;28;20483;-76
2023/02/20 05:11:45;;;;;;;9.57;5.03;;;6.20;99.90;;;;;;4159367;28;20461;-75
2023/02/20 05:13:47;;;;;;;12.00;5.70;;;6.20;99.90;;;;;;4160546;28;20484;-75
2023/02/20 05:15:49;;;;;;;9.73;4.97;;;6.20;99.90;;;;;;4160801;28;20499;-75
2023/02/20 05:17:51;;;;;;;11.10;5.63;;;6.20;99.90;;;;;;4160432;28;20468;-76
2023/02/20 05:19:54;;;;;;;12.70;5.87;;;6.20;99.90;;;;;;4171134;28;20865;-76
2023/02/20 05:24:16;;;;;;;10.87;4.87;;;6.10;99.90;;;;;;4159771;28;20485;-74
2023/02/20 05:26:21;;;;;;;11.10;5.97;;;6.10;99.90;;;;;;4159407;28;20448;-75
2023/02/20 05:28:23;;;;;;;10.27;5.60;;;6.20;99.90;;;;;;4160079;28;20480;-74
2023/02/20 05:30:25;;;;;;;13.37;5.80;;;6.20;99.90;;;;;;4158152;28;20538;-74
2023/02/20 05:32:29;;;;;;;13.40;5.70;;;6.20;99.90;;;;;;4153447;28;20456;-74
2023/02/20 05:34:31;;;;;;;9.10;4.93;;;6.20;99.90;;;;;;4160059;28;20477;-74
2023/02/20 05:36:35;;;;;;;10.77;5.37;;;6.20;99.90;;;;;;4160201;28;20456;-74
2023/02/20 05:38:37;;;;;;;10.90;5.50;;;6.20;99.90;;;;;;4160181;28;20504;-74
2023/02/20 05:40:39;;;;;;;9.67;5.17;;;6.20;99.90;;;;;;4161087;28;20472;-75
2023/02/20 05:42:41;;;;;;;9.67;5.83;;;6.20;99.90;;;;;;4155677;28;20536;-74
2023/02/20 05:44:44;;;;;;;9.73;5.10;;;6.20;99.90;;;;;;4154722;28;20559;-74
2023/02/20 05:46:46;;;;;;;11.67;5.80;;;6.20;99.90;;;;;;4159944;28;20514;-74
2023/02/20 05:48:49;;;;;;;9.97;5.50;;;6.20;99.90;;;;;;4155299;28;21219;-74
2023/02/20 05:50:52;;;;;;;10.33;5.50;;;6.20;99.90;;;;;;4158934;28;20455;-75
2023/02/20 05:52:56;;;;;;;11.47;5.03;;;6.20;99.90;;;;;;4159147;28;20480;-76
2023/02/20 05:54:58;;;;;;;11.23;4.80;;;6.20;99.90;;;;;;4158359;28;20518;-75
2023/02/20 05:57:00;;;;;;;10.17;4.80;;;6.20;99.90;;;;;;4159459;28;20765;-75
2023/02/20 05:59:02;;;;;;;10.03;5.30;;;6.20;99.90;;;;;;4160425;28;20480;-75
2023/02/20 06:01:04;;;;;;;9.33;5.40;;;6.20;99.90;;;;;;4158502;28;20476;-75
2023/02/20 06:03:06;;;;;;;10.13;5.23;;;6.20;99.90;;;;;;4160324;28;20480;-75
2023/02/20 06:05:09;;;;;;;7.43;4.20;;;6.20;99.90;;;;;;4158956;28;20560;-75
2023/02/20 06:07:10;;;;;;;10.27;4.90;;;6.20;99.90;;;;;;4160562;28;20883;-75
2023/02/20 06:09:15;;;;;;;8.93;4.43;;;6.30;99.90;;;;;;4159916;28;20452;-75
2023/02/20 06:11:17;;;;;;;9.97;4.37;;;6.20;99.90;;;;;;4159783;28;20902;-75
2023/02/20 06:13:19;;;;;;;8.13;4.23;;;6.20;99.90;;;;;;4158402;28;20508;-75
2023/02/20 06:15:21;;;;;;;6.87;4.27;;;6.20;99.90;;;;;;4159257;28;20967;-76
2023/02/20 06:17:23;;;;;;;8.50;4.47;;;6.20;99.90;;;;;;4160618;28;20514;-75
2023/02/20 06:19:26;;;;;;;6.23;3.87;;;6.20;99.90;;;;;;4158881;28;20516;-75
2023/02/20 06:21:28;;;;;;;7.77;4.27;;;6.20;99.90;;;;;;4160567;28;21095;-75
2023/02/20 06:23:30;;;;;;;7.73;4.23;;;6.20;99.90;;;;;;4159529;28;20994;-75
2023/02/20 06:25:33;;;;;;;7.20;4.03;;;6.10;99.90;;;;;;4158185;28;20453;-75
2023/02/20 06:27:39;;;;;;;8.40;3.83;;;6.20;99.90;;;;;;4157241;28;20464;-75
2023/02/20 06:29:41;;;;;;;8.00;4.20;;;6.20;99.90;;;;;;4159095;28;20436;-75
2023/02/20 06:31:43;;;;;;;5.43;3.40;;;6.20;99.90;;;;;;4159202;28;20517;-75
2023/02/20 06:33:45;;;;;;;9.30;3.80;;;6.20;99.90;;;;;;4160064;28;20524;-75
2023/02/20 06:35:47;;;;;;;7.07;3.57;;;6.20;99.90;;;;;;4158849;28;20522;-75
2023/02/20 06:37:49;;;;;;;7.17;3.90;;;6.20;99.90;;;;;;4156947;28;20627;-75
2023/02/20 06:39:51;;;;;;;8.23;3.80;;;6.20;99.90;;;;;;4159200;28;21014;-75
2023/02/20 06:41:55;;;;;;;8.10;4.70;;;6.20;99.90;;;;;;4161006;28;20541;-77
2023/02/20 06:43:57;;;;;;;10.37;3.97;;;6.20;99.90;;;;;;4159584;28;20484;-81
2023/02/20 06:45:59;;;;;;;9.67;4.07;;;6.20;99.90;;;;;;4151865;28;20559;-74
2023/02/20 06:48:02;;;;;;;7.60;4.40;;;6.20;99.90;;;;;;4159592;28;20456;-77
2023/02/20 06:50:04;;;;;;;7.00;4.03;;;6.20;99.90;;;;;;4162260;28;20457;-77
2023/02/20 06:52:06;;;;;;;8.87;4.43;;;6.20;99.90;;;;;;4164178;28;21115;-76
2023/02/20 06:54:10;;;;;;;7.90;4.70;;;6.20;99.90;;;;;;4177742;28;20580;-75
2023/02/20 06:56:17;;;;;;;10.20;4.83;;;6.20;99.90;;;;;;4161818;28;20487;-75
2023/02/20 06:58:20;;;;;;;10.10;5.40;;;6.30;99.90;;;;;;4166168;28;20872;-75
2023/02/20 07:00:23;;;;;;;10.50;5.27;;;6.30;99.90;;;;;;4158745;28;21032;-75
2023/02/20 07:02:25;;;;;;;8.20;5.00;;;6.30;99.90;;;;;;4157924;28;20483;-75
2023/02/20 07:04:27;;;;;;;9.60;5.23;;;6.30;99.90;;;;;;4162433;28;21332;-75
2023/02/20 07:06:29;;;;;;;9.00;5.07;;;6.30;99.90;;;;;;4162113;28;20445;-74
2023/02/20 07:08:30;;;;;;;9.63;5.07;;;6.40;99.90;;;;;;4163550;28;20473;-75
2023/02/20 07:10:32;;;;;;;11.90;5.63;;;6.40;99.90;;;;;;4159739;28;20518;-76
2023/02/20 07:12:36;;;;;;;11.07;5.40;;;6.30;99.90;;;;;;4160891;28;20457;-75
2023/02/20 07:14:40;;;;;;;9.90;5.43;;;6.30;99.90;;;;;;4161727;28;21012;-77
2023/02/20 07:16:42;;;;;;;8.80;5.33;;;6.40;99.90;;;;;;4166055;28;20465;-75
2023/02/20 07:18:43;;;;;;;10.03;5.13;;;6.30;99.90;;;;;;4158548;28;20861;-74
2023/02/20 07:20:45;;;;;;;11.20;6.10;;;6.30;99.90;;;;;;4177499;28;20464;-75
2023/02/20 07:22:51;;;;;;;11.83;6.17;;;6.30;99.90;;;;;;4163154;28;20492;-75
2023/02/20 07:24:53;;;;;;;9.77;5.80;;;6.30;99.90;;;;;;4161076;28;20549;-75
2023/02/20 07:26:55;;;;;;;11.37;5.30;;;6.30;99.90;;;;;;4176173;28;20444;-76
2023/02/20 07:28:59;;;;;;;11.27;6.23;;;6.30;99.90;;;;;;4161869;28;20460;-75
2023/02/20 07:31:02;;;;;;;10.53;5.80;;;6.30;99.90;;;;;;4162321;28;20493;-75
2023/02/20 07:33:04;;;;;;;11.17;6.00;;;6.30;99.90;;;;;;4161656;28;20555;-76
2023/02/20 07:35:07;;;;;;;10.80;5.93;;;6.30;99.90;;;;;;4161117;28;20713;-75
2023/02/20 07:37:12;;;;;;;9.10;5.57;;;6.40;99.90;;;;;;4162217;28;21217;-74
2023/02/20 07:39:14;;;;;;;11.07;5.73;;;6.40;99.90;;;;;;4160696;28;21084;-76
2023/02/20 07:41:16;;;;;;;10.37;5.60;;;6.40;99.90;;;;;;4161538;28;20496;-75
2023/02/20 07:43:20;;;;;;;10.97;6.13;;;6.50;99.90;;;;;;4159705;28;20483;-74
2023/02/20 07:45:23;;;;;;;11.53;5.90;;;6.50;99.90;;;;;;4160218;28;21009;-74
2023/02/20 07:47:26;;;;;;;12.13;6.63;;;6.50;99.90;;;;;;4174597;28;20475;-74
2023/02/20 07:49:28;;;;;;;10.90;5.87;;;6.60;99.90;;;;;;4159641;28;20918;-74
2023/02/20 07:51:30;;;;;;;11.47;6.30;;;6.60;99.90;;;;;;4160115;28;20461;-74
2023/02/20 07:53:32;;;;;;;10.87;5.90;;;6.70;99.90;;;;;;4158980;28;20484;-75
2023/02/20 07:55:34;;;;;;;10.53;6.37;;;6.70;99.90;;;;;;4158892;28;20476;-75
2023/02/20 07:57:38;;;;;;;10.30;5.37;;;6.80;99.90;;;;;;4160983;28;21097;-76
2023/02/20 07:59:40;;;;;;;9.70;5.53;;;6.90;99.90;;;;;;4159158;28;21042;-75
2023/02/20 08:01:44;;;;;;;10.00;5.43;;;6.90;99.90;;;;;;4160222;28;20547;-75
2023/02/20 08:03:47;;;;;;;10.30;5.87;;;6.90;99.90;;;;;;4159464;28;21231;-75
2023/02/20 08:05:49;;;;;;;10.67;5.57;;;6.90;99.90;;;;;;4175996;28;20519;-74
2023/02/20 08:07:51;;;;;;;9.60;5.70;;;6.90;99.90;;;;;;4161226;28;20564;-74
2023/02/20 08:09:53;;;;;;;11.03;5.83;;;7.00;99.90;;;;;;4160715;28;20446;-74
2023/02/20 08:11:56;;;;;;;9.17;5.23;;;7.00;99.90;;;;;;4160679;28;20492;-75
2023/02/20 08:13:58;;;;;;;9.63;5.30;;;7.00;99.90;;;;;;4159737;28;20496;-75
2023/02/20 08:16:00;;;;;;;10.00;5.53;;;7.00;99.90;;;;;;4162007;28;20550;-74
2023/02/20 08:18:02;;;;;;;9.73;5.40;;;7.00;99.90;;;;;;4161193;28;20497;-74
2023/02/20 08:20:06;;;;;;;9.57;5.50;;;7.10;99.90;;;;;;4161233;28;21069;-75
2023/02/20 08:22:13;;;;;;;8.60;5.00;;;7.10;99.90;;;;;;4175856;28;20517;-75
2023/02/20 08:24:15;;;;;;;8.83;5.20;;;7.20;99.90;;;;;;4161009;28;20472;-76
2023/02/20 08:26:17;;;;;;;8.03;4.83;;;7.20;99.90;;;;;;4159354;28;20462;-75
2023/02/20 08:28:20;;;;;;;8.30;4.70;;;7.20;99.90;;;;;;4175207;28;20519;-79
2023/02/20 08:30:23;;;;;;;10.13;4.77;;;7.30;99.90;;;;;;4159879;28;20524;-74
2023/02/20 08:32:25;;;;;;;8.30;4.57;;;7.30;99.90;;;;;;4159276;28;20917;-74
2023/02/20 08:34:27;;;;;;;7.30;4.40;;;7.30;99.90;;;;;;4160629;28;20605;-74
2023/02/20 08:36:31;;;;;;;8.13;4.67;;;7.30;99.90;;;;;;4160602;28;20532;-74
2023/02/20 08:38:34;;;;;;;8.03;4.83;;;7.40;99.90;;;;;;4158599;28;21023;-74
2023/02/20 08:40:36;;;;;;;8.63;4.50;;;7.40;99.90;;;;;;4159833;28;21007;-74
2023/02/20 08:42:38;;;;;;;8.20;4.30;;;7.50;99.90;;;;;;4158782;28;20458;-74
2023/02/20 08:44:41;;;;;;;8.77;4.63;;;7.50;99.90;;;;;;4161083;28;20553;-74
2023/02/20 08:46:46;;;;;;;8.17;4.57;;;7.50;99.90;;;;;;4160129;28;20460;-74
2023/02/20 08:48:48;;;;;;;7.03;4.43;;;7.60;99.90;;;;;;4159363;28;20488;-74
2023/02/20 08:50:50;;;;;;;6.43;3.90;;;7.60;99.90;;;;;;4159299;28;20541;-74
2023/02/20 08:52:54;;;;;;;6.47;3.83;;;7.70;99.90;;;;;;4159757;28;20504;-74
2023/02/20 08:54:56;;;;;;;7.40;4.20;;;7.70;99.90;;;;;;4158736;28;20668;-74
2023/02/20 08:56:57;;;;;;;7.43;3.87;;;7.70;99.90;;;;;;4156369;28;20496;-74
2023/02/20 08:58:59;;;;;;;5.93;3.43;;;7.70;99.90;;;;;;4159797;28;20481;-74
2023/02/20 09:01:01;;;;;;;6.13;3.47;;;7.70;99.90;;;;;;4175575;28;20558;-74
2023/02/20 09:03:06;;;;;;;7.07;3.63;;;7.80;99.90;;;;;;4159570;28;20250;-74
2023/02/20 09:05:08;;;;;;;6.37;3.43;;;7.80;99.90;;;;;;4174091;28;20213;-74
2023/02/20 09:07:10;;;;;;;7.30;3.87;;;7.80;99.90;;;;;;4160809;28;20276;-75
2023/02/20 09:09:14;;;;;;;9.13;3.73;;;7.80;99.90;;;;;;4161566;28;20500;-74
2023/02/20 09:11:16;;;;;;;6.77;3.13;;;7.90;99.90;;;;;;4158434;28;21073;-74
2023/02/20 09:13:18;;;;;;;5.50;3.10;;;8.00;99.90;;;;;;4160438;28;20269;-73
2023/02/20 09:15:20;;;;;;;7.47;2.97;;;8.10;99.90;;;;;;4160192;28;20217;-74
2023/02/20 09:17:21;;;;;;;8.60;2.93;;;8.10;99.90;;;;;;4158581;28;20262;-74
2023/02/20 09:19:24;;;;;;;7.20;2.90;;;8.20;99.90;;;;;;4159269;28;20241;-74
2023/02/20 09:21:27;;;;;;;5.37;3.23;;;8.20;99.90;;;;;;4159092;28;20462;-74
2023/02/20 09:23:29;;;;;;;4.53;2.93;;;8.20;99.90;;;;;;4159575;28;20889;-74
2023/02/20 09:25:32;;;;;;;8.10;3.00;;;8.20;99.90;;;;;;4156555;28;20219;-74
2023/02/20 09:27:35;;;;;;;4.93;2.93;;;8.20;99.90;;;;;;4158795;28;20237;-74
2023/02/20 09:29:39;;;;;;;5.33;2.67;;;8.20;99.90;;;;;;4158645;28;20210;-74
2023/02/20 09:31:41;;;;;;;6.10;2.90;;;8.30;99.90;;;;;;4158613;28;20217;-74
2023/02/20 09:33:45;;;;;;;5.53;3.20;;;8.30;99.90;;;;;;4158290;28;20234;-74
2023/02/20 09:35:48;;;;;;;5.27;2.70;;;8.40;99.90;;;;;;4159372;28;20242;-74
2023/02/20 09:37:50;;;;;;;4.93;2.83;;;8.50;99.90;;;;;;4159329;28;20567;-74
2023/02/20 09:39:52;;;;;;;6.17;2.43;;;8.50;99.90;;;;;;4159264;28;20239;-74
2023/02/20 09:42:16;;;;;;;5.80;2.47;;;8.50;99.90;;;;;;4158932;28;20213;-74
2023/02/20 09:44:24;;;;;;;4.63;2.20;;;8.60;99.90;;;;;;4158277;28;20313;-74
2023/02/20 09:46:26;;;;;;;3.43;2.20;;;8.60;99.90;;;;;;4156755;28;20690;-74
2023/02/20 09:48:40;;;;;;;7.17;2.40;;;8.70;99.90;;;;;;4160377;28;20226;-74
2023/02/20 09:50:48;;;;;;;6.40;2.40;;;8.70;99.90;;;;;;4158354;28;20239;-75
2023/02/20 09:52:58;;;;;;;5.23;2.30;;;8.70;99.90;;;;;;4159450;28;20257;-74
2023/02/20 09:55:04;;;;;;;4.87;2.47;;;8.80;99.90;;;;;;4158510;28;20291;-74
2023/02/20 09:57:13;;;;;;;4.17;2.07;;;8.80;99.90;;;;;;4159234;28;20258;-74
2023/02/20 09:59:18;;;;;;;3.30;1.90;;;8.90;99.90;;;;;;4154960;28;21288;-74
2023/02/20 10:01:22;;;;;;;5.20;2.17;;;8.90;99.90;;;;;;4159664;28;20219;-74
2023/02/20 10:03:33;;;;;;;4.20;2.00;;;9.00;99.90;;;;;;4174301;28;20908;-74
2023/02/20 10:05:36;;;;;;;3.80;2.20;;;9.00;99.90;;;;;;4158128;28;20289;-74
2023/02/20 10:07:40;;;;;;;4.27;2.10;;;9.00;99.90;;;;;;4158907;28;20208;-74
2023/02/20 10:09:43;;;;;;;3.10;2.03;;;9.10;99.90;;;;;;4157392;28;20243;-74
2023/02/20 10:12:04;;;;;;;3.63;2.10;;;9.10;99.90;;;;;;4157961;28;21031;-74
2023/02/20 10:14:22;;;;;;;5.60;2.47;;;9.20;99.90;;;;;;4158295;28;20225;-74
2023/02/20 10:16:32;;;;;;;4.00;1.97;;;9.30;99.90;;;;;;4158777;28;20948;-74
2023/02/20 10:18:40;;;;;;;3.60;2.00;;;9.40;99.90;;;;;;4158975;28;20205;-74
2023/02/20 10:20:54;;;;;;;4.03;2.10;;;9.40;99.90;;;;;;4156296;28;20243;-74
2023/02/20 10:23:02;;;;;;;4.43;2.33;;;9.50;99.90;;;;;;4158770;28;20247;-75
2023/02/20 10:25:12;;;;;;;4.23;1.80;;;9.50;99.90;;;;;;4159939;28;20212;-74
2023/02/20 10:27:30;;;;;;;6.07;2.07;;;9.50;99.90;;;;;;4159635;28;20236;-74
2023/02/20 10:29:37;;;;;;;2.90;1.73;;;9.60;99.90;;;;;;4161231;28;20297;-74
2023/02/20 10:31:43;;;;;;;6.63;1.90;;;9.60;99.90;;;;;;4156488;28;20216;-75
2023/02/20 10:33:50;;;;;;;2.77;1.90;;;9.70;99.90;;;;;;4159020;28;20756;-79
2023/02/20 10:35:56;;;;;;;3.93;1.60;;;9.70;99.90;;;;;;4161784;28;20262;-74
2023/02/20 10:38:04;;;;;;;5.00;2.00;;;9.70;99.90;;;;;;4161302;28;20211;-74
2023/02/20 10:40:14;;;;;;;3.77;1.80;;;9.70;99.90;;;;;;4159349;28;20258;-74
2023/02/20 10:42:22;;;;;;;6.03;1.83;;;9.80;99.90;;;;;;4161151;28;20247;-74
2023/02/20 10:44:31;;;;;;;4.53;1.80;;;9.80;99.90;;;;;;4159882;28;20822;-74
2023/02/20 10:46:43;;;;;;;3.90;2.17;;;9.90;99.90;;;;;;4177683;28;20664;-75
2023/02/20 10:48:46;;;;;;;5.57;2.00;;;9.90;99.90;;;;;;4162747;28;20214;-76
2023/02/20 10:50:53;;;;;;;5.20;1.70;;;9.90;99.90;;;;;;4157054;28;20288;-76
2023/02/20 10:53:01;;;;;;;12.93;2.00;;;10.00;99.90;;;;;;4163891;28;20331;-75
2023/02/20 10:55:09;;;;;;;3.10;1.80;;;10.10;99.90;;;;;;4178708;28;20207;-76
2023/02/20 10:57:14;;;;;;;4.53;1.73;;;10.20;99.90;;;;;;4162580;28;20565;-74
2023/02/20 10:59:23;;;;;;;4.00;1.77;;;10.40;99.90;;;;;;4161575;28;20213;-75
2023/02/20 11:01:26;;;;;;;3.23;1.50;;;10.40;99.90;;;;;;4162361;28;20279;-75
2023/02/20 11:03:36;;;;;;;2.37;1.50;;;10.50;99.90;;;;;;4161792;28;20856;-75
2023/02/20 11:05:45;;;;;;;2.90;1.70;;;10.50;99.90;;;;;;4161372;28;20240;-75
2023/02/20 11:07:48;;;;;;;5.47;1.73;;;10.60;99.90;;;;;;4161302;28;20214;-75
2023/02/20 11:09:50;;;;;;;6.00;1.67;;;10.60;99.90;;;;;;4159671;28;20215;-75
2023/02/20 11:11:54;;;;;;;2.73;1.67;;;10.70;99.90;;;;;;4160631;28;20202;-75
2023/02/20 11:13:58;;;;;;;2.13;1.40;;;10.80;99.90;;;;;;4160602;28;20222;-75